sensor_id;sensor_type;location;lat;lon;timestamp;P1;durP1;ratioP1;P2;durP2;ratioP2
74042;SDS011;62384;53.600;10.040;2023-05-10T00:01:59;3.92;;;2.85;;
74042;SDS011;62384;53.600;10.040;2023-05-10T00:04:24;4.85;;;2.75;;
74042;SDS011;62384;53.600;10.040;2023-05-10T00:06:52;4.75;;;2.70;;
74042;SDS011;62384;53.600;10.040;2023-05-10T00:09:17;6.50;;;2.90;;
74042;SDS011;62384;53.600;10.040;2023-05-10T00:11:43;5.50;;;2.40;;
74042;SDS011;62384;53.600;10.040;2023-05-10T00:14:08;4.43;;;2.88;;
74042;SDS011;62384;53.600;10.040;2023-05-10T00:16:34;5.30;;;2.75;;
74042;SDS011;62384;53.600;10.040;2023-05-10T00:18:59;3.72;;;2.53;;
74042;SDS011;62384;53.600;10.040;2023-05-10T00:21:24;5.63;;;2.83;;
74042;SDS011;62384;53.600;10.040;2023-05-10T00:23:50;5.22;;;3.08;;
74042;SDS011;62384;53.600;10.040;2023-05-10T00:26:15;6.45;;;3.00;;
74042;SDS011;62384;53.600;10.040;2023-05-10T00:28:41;5.03;;;3.00;;
74042;SDS011;62384;53.600;10.040;2023-05-10T00:31:06;3.40;;;2.65;;
74042;SDS011;62384;53.600;10.040;2023-05-10T00:33:33;6.18;;;2.90;;
74042;SDS011;62384;53.600;10.040;2023-05-10T00:35:59;4.70;;;2.75;;
74042;SDS011;62384;53.600;10.040;2023-05-10T00:38:27;5.95;;;3.15;;
74042;SDS011;62384;53.600;10.040;2023-05-10T00:40:52;3.60;;;2.38;;
74042;SDS011;62384;53.600;10.040;2023-05-10T00:43:18;5.50;;;2.65;;
74042;SDS011;62384;53.600;10.040;2023-05-10T00:45:44;5.88;;;3.15;;
74042;SDS011;62384;53.600;10.040;2023-05-10T00:48:09;7.22;;;2.78;;
74042;SDS011;62384;53.600;10.040;2023-05-10T00:50:35;6.20;;;2.95;;
74042;SDS011;62384;53.600;10.040;2023-05-10T00:53:00;5.75;;;3.03;;
74042;SDS011;62384;53.600;10.040;2023-05-10T00:55:27;5.95;;;3.20;;
74042;SDS011;62384;53.600;10.040;2023-05-10T00:57:53;6.93;;;3.20;;
74042;SDS011;62384;53.600;10.040;2023-05-10T01:00:18;6.40;;;2.25;;
74042;SDS011;62384;53.600;10.040;2023-05-10T01:02:44;5.38;;;3.28;;
74042;SDS011;62384;53.600;10.040;2023-05-10T01:05:11;5.47;;;2.63;;
74042;SDS011;62384;53.600;10.040;2023-05-10T01:07:36;4.85;;;2.72;;
74042;SDS011;62384;53.600;10.040;2023-05-10T01:10:02;7.20;;;3.08;;
74042;SDS011;62384;53.600;10.040;2023-05-10T01:12:28;4.43;;;2.97;;
74042;SDS011;62384;53.600;10.040;2023-05-10T01:14:54;6.60;;;3.03;;
74042;SDS011;62384;53.600;10.040;2023-05-10T01:17:20;3.78;;;2.60;;
74042;SDS011;62384;53.600;10.040;2023-05-10T01:19:47;4.30;;;2.88;;
74042;SDS011;62384;53.600;10.040;2023-05-10T01:22:22;4.75;;;3.10;;
74042;SDS011;62384;53.600;10.040;2023-05-10T01:39:20;4.60;;;3.17;;
74042;SDS011;62384;53.600;10.040;2023-05-10T01:41:55;4.72;;;2.72;;
74042;SDS011;62384;53.600;10.040;2023-05-10T01:45:02;5.68;;;3.38;;
74042;SDS011;62384;53.600;10.040;2023-05-10T01:50:45;6.15;;;3.55;;
74042;SDS011;62384;53.600;10.040;2023-05-10T01:53:12;5.13;;;2.75;;
74042;SDS011;62384;53.600;10.040;2023-05-10T01:55:43;4.72;;;3.30;;
74042;SDS011;62384;53.600;10.040;2023-05-10T01:58:15;7.95;;;3.13;;
74042;SDS011;62384;53.600;10.040;2023-05-10T02:00:45;8.38;;;3.38;;
74042;SDS011;62384;53.600;10.040;2023-05-10T02:03:12;9.00;;;2.92;;
74042;SDS011;62384;53.600;10.040;2023-05-10T02:05:39;7.30;;;3.30;;
74042;SDS011;62384;53.600;10.040;2023-05-10T02:08:07;6.55;;;3.10;;
74042;SDS011;62384;53.600;10.040;2023-05-10T02:10:34;5.85;;;3.00;;
74042;SDS011;62384;53.600;10.040;2023-05-10T02:13:00;5.05;;;3.33;;
74042;SDS011;62384;53.600;10.040;2023-05-10T02:15:27;5.55;;;3.08;;
74042;SDS011;62384;53.600;10.040;2023-05-10T02:17:55;10.20;;;3.03;;
74042;SDS011;62384;53.600;10.040;2023-05-10T02:20:21;4.63;;;2.92;;
74042;SDS011;62384;53.600;10.040;2023-05-10T02:22:49;5.28;;;3.35;;
74042;SDS011;62384;53.600;10.040;2023-05-10T02:25:16;6.70;;;3.03;;
74042;SDS011;62384;53.600;10.040;2023-05-10T02:27:44;5.50;;;2.92;;
74042;SDS011;62384;53.600;10.040;2023-05-10T02:30:09;7.10;;;3.38;;
74042;SDS011;62384;53.600;10.040;2023-05-10T02:32:36;6.78;;;3.47;;
74042;SDS011;62384;53.600;10.040;2023-05-10T02:35:02;5.13;;;3.05;;
74042;SDS011;62384;53.600;10.040;2023-05-10T02:37:29;5.50;;;3.20;;
74042;SDS011;62384;53.600;10.040;2023-05-10T02:39:55;4.72;;;3.50;;
74042;SDS011;62384;53.600;10.040;2023-05-10T02:42:27;4.85;;;2.97;;
74042;SDS011;62384;53.600;10.040;2023-05-10T02:44:56;6.43;;;3.17;;
74042;SDS011;62384;53.600;10.040;2023-05-10T02:47:25;5.32;;;2.80;;
74042;SDS011;62384;53.600;10.040;2023-05-10T02:49:51;6.97;;;3.55;;
74042;SDS011;62384;53.600;10.040;2023-05-10T02:52:19;4.70;;;3.17;;
74042;SDS011;62384;53.600;10.040;2023-05-10T02:54:48;6.05;;;3.00;;
74042;SDS011;62384;53.600;10.040;2023-05-10T02:57:17;8.15;;;3.33;;
74042;SDS011;62384;53.600;10.040;2023-05-10T02:59:50;6.10;;;3.22;;
74042;SDS011;62384;53.600;10.040;2023-05-10T03:02:15;6.35;;;3.38;;
74042;SDS011;62384;53.600;10.040;2023-05-10T03:04:41;6.95;;;3.50;;
74042;SDS011;62384;53.600;10.040;2023-05-10T03:07:07;5.22;;;2.75;;
74042;SDS011;62384;53.600;10.040;2023-05-10T03:09:32;6.13;;;3.45;;
74042;SDS011;62384;53.600;10.040;2023-05-10T03:12:15;5.25;;;3.25;;
74042;SDS011;62384;53.600;10.040;2023-05-10T03:15:11;5.22;;;3.25;;
74042;SDS011;62384;53.600;10.040;2023-05-10T03:17:41;6.85;;;3.15;;
74042;SDS011;62384;53.600;10.040;2023-05-10T03:20:18;6.10;;;3.35;;
74042;SDS011;62384;53.600;10.040;2023-05-10T03:23:16;8.27;;;3.13;;
74042;SDS011;62384;53.600;10.040;2023-05-10T03:25:48;7.65;;;3.10;;
74042;SDS011;62384;53.600;10.040;2023-05-10T03:28:15;5.10;;;3.00;;
74042;SDS011;62384;53.600;10.040;2023-05-10T03:30:42;7.72;;;3.60;;
74042;SDS011;62384;53.600;10.040;2023-05-10T03:33:08;5.07;;;3.00;;
74042;SDS011;62384;53.600;10.040;2023-05-10T03:35:34;6.65;;;4.03;;
74042;SDS011;62384;53.600;10.040;2023-05-10T03:38:00;5.32;;;3.50;;
74042;SDS011;62384;53.600;10.040;2023-05-10T03:40:26;6.88;;;3.38;;
74042;SDS011;62384;53.600;10.040;2023-05-10T03:42:54;5.97;;;3.30;;
74042;SDS011;62384;53.600;10.040;2023-05-10T03:45:20;5.93;;;2.90;;
74042;SDS011;62384;53.600;10.040;2023-05-10T03:47:45;3.83;;;3.05;;
74042;SDS011;62384;53.600;10.040;2023-05-10T03:50:11;5.85;;;3.60;;
74042;SDS011;62384;53.600;10.040;2023-05-10T03:52:36;6.38;;;3.20;;
74042;SDS011;62384;53.600;10.040;2023-05-10T03:55:04;5.47;;;2.83;;
74042;SDS011;62384;53.600;10.040;2023-05-10T03:57:30;10.23;;;3.10;;
74042;SDS011;62384;53.600;10.040;2023-05-10T03:59:55;5.53;;;3.03;;
74042;SDS011;62384;53.600;10.040;2023-05-10T04:02:20;7.90;;;3.28;;
74042;SDS011;62384;53.600;10.040;2023-05-10T04:04:45;9.02;;;3.13;;
74042;SDS011;62384;53.600;10.040;2023-05-10T04:07:11;6.75;;;3.38;;
74042;SDS011;62384;53.600;10.040;2023-05-10T04:09:36;6.40;;;3.35;;
74042;SDS011;62384;53.600;10.040;2023-05-10T04:12:01;6.15;;;3.17;;
74042;SDS011;62384;53.600;10.040;2023-05-10T04:14:27;13.35;;;3.40;;
74042;SDS011;62384;53.600;10.040;2023-05-10T04:16:52;6.97;;;3.13;;
74042;SDS011;62384;53.600;10.040;2023-05-10T04:19:18;8.70;;;3.25;;
74042;SDS011;62384;53.600;10.040;2023-05-10T04:21:43;8.27;;;3.15;;
74042;SDS011;62384;53.600;10.040;2023-05-10T04:24:08;10.25;;;3.58;;
74042;SDS011;62384;53.600;10.040;2023-05-10T04:26:33;9.32;;;3.42;;
74042;SDS011;62384;53.600;10.040;2023-05-10T04:28:59;5.80;;;3.05;;
74042;SDS011;62384;53.600;10.040;2023-05-10T04:31:24;6.05;;;3.30;;
74042;SDS011;62384;53.600;10.040;2023-05-10T04:33:49;6.65;;;3.63;;
74042;SDS011;62384;53.600;10.040;2023-05-10T04:36:15;4.95;;;3.22;;
74042;SDS011;62384;53.600;10.040;2023-05-10T04:38:40;7.43;;;3.67;;
74042;SDS011;62384;53.600;10.040;2023-05-10T04:41:09;4.30;;;3.15;;
74042;SDS011;62384;53.600;10.040;2023-05-10T04:43:35;7.88;;;3.88;;
74042;SDS011;62384;53.600;10.040;2023-05-10T04:46:02;5.63;;;3.40;;
74042;SDS011;62384;53.600;10.040;2023-05-10T04:48:27;7.15;;;3.63;;
74042;SDS011;62384;53.600;10.040;2023-05-10T04:50:53;6.65;;;3.35;;
74042;SDS011;62384;53.600;10.040;2023-05-10T04:53:20;10.82;;;3.17;;
74042;SDS011;62384;53.600;10.040;2023-05-10T04:55:45;4.78;;;3.25;;
74042;SDS011;62384;53.600;10.040;2023-05-10T04:58:11;7.47;;;3.45;;
74042;SDS011;62384;53.600;10.040;2023-05-10T05:00:36;10.55;;;4.57;;
74042;SDS011;62384;53.600;10.040;2023-05-10T05:03:02;5.72;;;3.17;;
74042;SDS011;62384;53.600;10.040;2023-05-10T05:05:27;6.45;;;3.58;;
74042;SDS011;62384;53.600;10.040;2023-05-10T05:07:52;8.30;;;3.45;;
74042;SDS011;62384;53.600;10.040;2023-05-10T05:10:18;7.13;;;3.10;;
74042;SDS011;62384;53.600;10.040;2023-05-10T05:12:43;5.18;;;3.00;;
74042;SDS011;62384;53.600;10.040;2023-05-10T05:15:08;5.15;;;3.33;;
74042;SDS011;62384;53.600;10.040;2023-05-10T05:17:34;15.10;;;3.25;;
74042;SDS011;62384;53.600;10.040;2023-05-10T05:20:00;4.65;;;2.90;;
74042;SDS011;62384;53.600;10.040;2023-05-10T05:22:25;5.07;;;3.35;;
74042;SDS011;62384;53.600;10.040;2023-05-10T05:24:54;5.90;;;3.25;;
74042;SDS011;62384;53.600;10.040;2023-05-10T05:27:21;6.68;;;3.35;;
74042;SDS011;62384;53.600;10.040;2023-05-10T05:29:49;10.13;;;4.15;;
74042;SDS011;62384;53.600;10.040;2023-05-10T05:32:15;9.93;;;5.38;;
74042;SDS011;62384;53.600;10.040;2023-05-10T05:34:41;7.13;;;3.35;;
74042;SDS011;62384;53.600;10.040;2023-05-10T05:37:06;5.32;;;3.40;;
74042;SDS011;62384;53.600;10.040;2023-05-10T05:39:31;4.88;;;3.42;;
74042;SDS011;62384;53.600;10.040;2023-05-10T05:41:57;7.35;;;3.30;;
74042;SDS011;62384;53.600;10.040;2023-05-10T05:44:23;5.40;;;3.53;;
74042;SDS011;62384;53.600;10.040;2023-05-10T05:46:48;8.40;;;3.40;;
74042;SDS011;62384;53.600;10.040;2023-05-10T05:49:14;8.20;;;3.13;;
74042;SDS011;62384;53.600;10.040;2023-05-10T05:51:39;9.45;;;3.75;;
74042;SDS011;62384;53.600;10.040;2023-05-10T05:54:07;5.40;;;3.40;;
74042;SDS011;62384;53.600;10.040;2023-05-10T05:56:32;6.93;;;2.97;;
74042;SDS011;62384;53.600;10.040;2023-05-10T05:58:57;4.72;;;3.00;;
74042;SDS011;62384;53.600;10.040;2023-05-10T06:01:23;7.38;;;3.40;;
74042;SDS011;62384;53.600;10.040;2023-05-10T06:03:48;6.38;;;3.42;;
74042;SDS011;62384;53.600;10.040;2023-05-10T06:06:13;6.43;;;3.60;;
74042;SDS011;62384;53.600;10.040;2023-05-10T06:08:39;7.28;;;3.80;;
74042;SDS011;62384;53.600;10.040;2023-05-10T06:11:04;5.55;;;2.75;;
74042;SDS011;62384;53.600;10.040;2023-05-10T06:13:29;4.88;;;3.00;;
74042;SDS011;62384;53.600;10.040;2023-05-10T06:16:00;7.00;;;2.92;;
74042;SDS011;62384;53.600;10.040;2023-05-10T06:18:26;7.80;;;3.30;;
74042;SDS011;62384;53.600;10.040;2023-05-10T06:20:51;6.18;;;3.67;;
74042;SDS011;62384;53.600;10.040;2023-05-10T06:23:16;6.50;;;3.75;;
74042;SDS011;62384;53.600;10.040;2023-05-10T06:25:42;3.72;;;3.10;;
74042;SDS011;62384;53.600;10.040;2023-05-10T06:28:07;6.72;;;3.10;;
74042;SDS011;62384;53.600;10.040;2023-05-10T06:30:32;5.18;;;3.30;;
74042;SDS011;62384;53.600;10.040;2023-05-10T06:32:58;5.95;;;3.17;;
74042;SDS011;62384;53.600;10.040;2023-05-10T06:35:23;5.10;;;3.13;;
74042;SDS011;62384;53.600;10.040;2023-05-10T06:37:49;5.43;;;3.38;;
74042;SDS011;62384;53.600;10.040;2023-05-10T06:40:15;6.25;;;3.45;;
74042;SDS011;62384;53.600;10.040;2023-05-10T06:42:40;6.50;;;3.25;;
74042;SDS011;62384;53.600;10.040;2023-05-10T06:45:08;3.63;;;2.83;;
74042;SDS011;62384;53.600;10.040;2023-05-10T06:47:34;5.13;;;3.25;;
74042;SDS011;62384;53.600;10.040;2023-05-10T06:49:59;5.53;;;3.75;;
74042;SDS011;62384;53.600;10.040;2023-05-10T06:52:24;5.47;;;3.80;;
74042;SDS011;62384;53.600;10.040;2023-05-10T06:54:50;5.80;;;3.35;;
74042;SDS011;62384;53.600;10.040;2023-05-10T06:57:16;6.97;;;3.40;;
74042;SDS011;62384;53.600;10.040;2023-05-10T06:59:42;5.97;;;3.40;;
74042;SDS011;62384;53.600;10.040;2023-05-10T07:02:08;7.20;;;3.15;;
74042;SDS011;62384;53.600;10.040;2023-05-10T07:04:33;5.20;;;3.50;;
74042;SDS011;62384;53.600;10.040;2023-05-10T07:06:59;5.63;;;3.33;;
74042;SDS011;62384;53.600;10.040;2023-05-10T07:09:24;5.10;;;3.13;;
74042;SDS011;62384;53.600;10.040;2023-05-10T07:11:52;11.27;;;3.50;;
74042;SDS011;62384;53.600;10.040;2023-05-10T07:14:17;6.85;;;3.20;;
74042;SDS011;62384;53.600;10.040;2023-05-10T07:16:42;6.53;;;3.58;;
74042;SDS011;62384;53.600;10.040;2023-05-10T07:19:08;4.72;;;2.85;;
74042;SDS011;62384;53.600;10.040;2023-05-10T07:21:33;5.32;;;3.13;;
74042;SDS011;62384;53.600;10.040;2023-05-10T07:24:00;5.68;;;3.40;;
74042;SDS011;62384;53.600;10.040;2023-05-10T07:26:25;6.60;;;3.33;;
74042;SDS011;62384;53.600;10.040;2023-05-10T07:28:51;9.20;;;3.85;;
74042;SDS011;62384;53.600;10.040;2023-05-10T07:31:16;5.78;;;3.40;;
74042;SDS011;62384;53.600;10.040;2023-05-10T07:33:42;6.93;;;3.25;;
74042;SDS011;62384;53.600;10.040;2023-05-10T07:36:07;8.52;;;3.22;;
74042;SDS011;62384;53.600;10.040;2023-05-10T07:38:32;6.85;;;3.60;;
74042;SDS011;62384;53.600;10.040;2023-05-10T07:40:58;6.43;;;3.53;;
74042;SDS011;62384;53.600;10.040;2023-05-10T07:43:23;5.65;;;3.25;;
74042;SDS011;62384;53.600;10.040;2023-05-10T07:45:48;6.00;;;3.08;;
74042;SDS011;62384;53.600;10.040;2023-05-10T07:48:14;6.43;;;3.53;;
74042;SDS011;62384;53.600;10.040;2023-05-10T07:50:39;6.50;;;3.78;;
74042;SDS011;62384;53.600;10.040;2023-05-10T07:53:04;7.28;;;3.28;;
74042;SDS011;62384;53.600;10.040;2023-05-10T07:55:30;4.40;;;3.22;;
74042;SDS011;62384;53.600;10.040;2023-05-10T07:57:58;7.90;;;3.30;;
74042;SDS011;62384;53.600;10.040;2023-05-10T08:00:26;4.50;;;3.17;;
74042;SDS011;62384;53.600;10.040;2023-05-10T08:02:51;5.40;;;3.22;;
74042;SDS011;62384;53.600;10.040;2023-05-10T08:05:17;5.35;;;2.85;;
74042;SDS011;62384;53.600;10.040;2023-05-10T08:07:43;10.93;;;3.13;;
74042;SDS011;62384;53.600;10.040;2023-05-10T08:10:08;4.88;;;3.45;;
74042;SDS011;62384;53.600;10.040;2023-05-10T08:12:34;6.75;;;3.00;;
74042;SDS011;62384;53.600;10.040;2023-05-10T08:14:59;5.60;;;3.25;;
74042;SDS011;62384;53.600;10.040;2023-05-10T08:17:25;4.57;;;2.97;;
74042;SDS011;62384;53.600;10.040;2023-05-10T08:19:50;5.60;;;2.92;;
74042;SDS011;62384;53.600;10.040;2023-05-10T08:22:15;9.27;;;3.67;;
74042;SDS011;62384;53.600;10.040;2023-05-10T08:24:41;6.13;;;3.30;;
74042;SDS011;62384;53.600;10.040;2023-05-10T08:27:07;5.40;;;3.47;;
74042;SDS011;62384;53.600;10.040;2023-05-10T08:29:33;5.53;;;4.22;;
74042;SDS011;62384;53.600;10.040;2023-05-10T08:31:59;7.15;;;3.53;;
74042;SDS011;62384;53.600;10.040;2023-05-10T08:34:25;6.18;;;3.50;;
74042;SDS011;62384;53.600;10.040;2023-05-10T08:36:51;7.00;;;3.15;;
74042;SDS011;62384;53.600;10.040;2023-05-10T08:39:16;7.28;;;3.75;;
74042;SDS011;62384;53.600;10.040;2023-05-10T08:41:42;5.45;;;2.90;;
74042;SDS011;62384;53.600;10.040;2023-05-10T08:44:10;5.43;;;3.30;;
74042;SDS011;62384;53.600;10.040;2023-05-10T08:46:37;5.97;;;3.15;;
74042;SDS011;62384;53.600;10.040;2023-05-10T08:49:04;5.80;;;3.38;;
74042;SDS011;62384;53.600;10.040;2023-05-10T08:51:36;5.25;;;3.75;;
74042;SDS011;62384;53.600;10.040;2023-05-10T08:54:08;6.47;;;3.45;;
74042;SDS011;62384;53.600;10.040;2023-05-10T08:56:34;4.95;;;3.38;;
74042;SDS011;62384;53.600;10.040;2023-05-10T08:59:01;7.97;;;3.55;;
74042;SDS011;62384;53.600;10.040;2023-05-10T09:01:26;5.65;;;3.47;;
74042;SDS011;62384;53.600;10.040;2023-05-10T09:03:52;7.53;;;3.72;;
74042;SDS011;62384;53.600;10.040;2023-05-10T09:06:26;4.90;;;3.42;;
74042;SDS011;62384;53.600;10.040;2023-05-10T09:08:51;7.95;;;3.67;;
74042;SDS011;62384;53.600;10.040;2023-05-10T09:11:17;8.30;;;3.60;;
74042;SDS011;62384;53.600;10.040;2023-05-10T09:13:42;6.97;;;3.65;;
74042;SDS011;62384;53.600;10.040;2023-05-10T09:16:08;5.57;;;3.53;;
74042;SDS011;62384;53.600;10.040;2023-05-10T09:18:34;5.47;;;3.53;;
74042;SDS011;62384;53.600;10.040;2023-05-10T09:20:59;5.07;;;3.42;;
74042;SDS011;62384;53.600;10.040;2023-05-10T09:23:25;7.05;;;3.53;;
74042;SDS011;62384;53.600;10.040;2023-05-10T09:26:05;6.33;;;3.57;;
74042;SDS011;62384;53.600;10.040;2023-05-10T09:28:31;7.60;;;3.10;;
74042;SDS011;62384;53.600;10.040;2023-05-10T09:30:58;4.57;;;3.22;;
74042;SDS011;62384;53.600;10.040;2023-05-10T09:33:24;5.85;;;3.20;;
74042;SDS011;62384;53.600;10.040;2023-05-10T09:35:50;5.47;;;3.70;;
74042;SDS011;62384;53.600;10.040;2023-05-10T09:38:16;6.78;;;4.20;;
74042;SDS011;62384;53.600;10.040;2023-05-10T09:40:42;8.73;;;3.65;;
74042;SDS011;62384;53.600;10.040;2023-05-10T09:43:19;6.05;;;3.80;;
74042;SDS011;62384;53.600;10.040;2023-05-10T09:45:45;4.30;;;3.40;;
74042;SDS011;62384;53.600;10.040;2023-05-10T09:48:13;7.13;;;3.78;;
74042;SDS011;62384;53.600;10.040;2023-05-10T09:50:39;5.03;;;3.35;;
74042;SDS011;62384;53.600;10.040;2023-05-10T09:53:05;9.40;;;3.97;;
74042;SDS011;62384;53.600;10.040;2023-05-10T09:55:43;8.57;;;3.55;;
74042;SDS011;62384;53.600;10.040;2023-05-10T09:58:10;7.95;;;4.18;;
74042;SDS011;62384;53.600;10.040;2023-05-10T10:00:37;8.10;;;4.10;;
74042;SDS011;62384;53.600;10.040;2023-05-10T10:03:15;11.13;;;4.20;;
74042;SDS011;62384;53.600;10.040;2023-05-10T10:05:42;6.70;;;4.43;;
74042;SDS011;62384;53.600;10.040;2023-05-10T10:08:08;7.40;;;4.25;;
74042;SDS011;62384;53.600;10.040;2023-05-10T10:10:34;7.35;;;4.50;;
74042;SDS011;62384;53.600;10.040;2023-05-10T10:13:00;6.72;;;4.50;;
74042;SDS011;62384;53.600;10.040;2023-05-10T10:15:26;10.85;;;5.18;;
74042;SDS011;62384;53.600;10.040;2023-05-10T10:17:52;10.93;;;5.25;;
74042;SDS011;62384;53.600;10.040;2023-05-10T10:20:19;9.13;;;5.28;;
74042;SDS011;62384;53.600;10.040;2023-05-10T10:22:46;10.75;;;5.95;;
74042;SDS011;62384;53.600;10.040;2023-05-10T10:25:12;10.73;;;6.05;;
74042;SDS011;62384;53.600;10.040;2023-05-10T10:30:32;10.20;;;6.18;;
74042;SDS011;62384;53.600;10.040;2023-05-10T10:35:54;10.82;;;5.75;;
74042;SDS011;62384;53.600;10.040;2023-05-10T10:38:22;10.05;;;5.97;;
74042;SDS011;62384;53.600;10.040;2023-05-10T10:40:48;8.18;;;5.22;;
74042;SDS011;62384;53.600;10.040;2023-05-10T10:43:27;13.65;;;6.32;;
74042;SDS011;62384;53.600;10.040;2023-05-10T10:46:09;12.18;;;5.78;;
74042;SDS011;62384;53.600;10.040;2023-05-10T10:49:08;12.73;;;5.90;;
74042;SDS011;62384;53.600;10.040;2023-05-10T10:51:40;10.45;;;6.32;;
74042;SDS011;62384;53.600;10.040;2023-05-10T10:54:50;11.48;;;6.35;;
74042;SDS011;62384;53.600;10.040;2023-05-10T10:57:18;11.48;;;6.75;;
74042;SDS011;62384;53.600;10.040;2023-05-10T10:59:44;9.57;;;6.60;;
74042;SDS011;62384;53.600;10.040;2023-05-10T11:02:10;10.52;;;6.68;;
74042;SDS011;62384;53.600;10.040;2023-05-10T11:04:59;13.57;;;7.53;;
74042;SDS011;62384;53.600;10.040;2023-05-10T11:07:25;11.40;;;6.10;;
74042;SDS011;62384;53.600;10.040;2023-05-10T11:09:51;11.38;;;6.85;;
74042;SDS011;62384;53.600;10.040;2023-05-10T11:12:16;10.90;;;6.20;;
74042;SDS011;62384;53.600;10.040;2023-05-10T11:14:42;11.70;;;6.57;;
74042;SDS011;62384;53.600;10.040;2023-05-10T11:17:24;12.63;;;6.65;;
74042;SDS011;62384;53.600;10.040;2023-05-10T11:20:06;11.23;;;5.93;;
74042;SDS011;62384;53.600;10.040;2023-05-10T11:25:17;11.85;;;6.63;;
74042;SDS011;62384;53.600;10.040;2023-05-10T11:27:43;11.38;;;6.00;;
74042;SDS011;62384;53.600;10.040;2023-05-10T11:30:10;12.15;;;6.10;;
74042;SDS011;62384;53.600;10.040;2023-05-10T11:32:39;12.63;;;6.05;;
74042;SDS011;62384;53.600;10.040;2023-05-10T11:35:08;9.63;;;5.57;;
74042;SDS011;62384;53.600;10.040;2023-05-10T11:37:35;12.80;;;6.78;;
74042;SDS011;62384;53.600;10.040;2023-05-10T11:40:03;13.07;;;6.38;;
74042;SDS011;62384;53.600;10.040;2023-05-10T11:42:29;13.65;;;6.70;;
74042;SDS011;62384;53.600;10.040;2023-05-10T11:44:55;20.58;;;7.05;;
74042;SDS011;62384;53.600;10.040;2023-05-10T11:47:21;11.60;;;6.53;;
74042;SDS011;62384;53.600;10.040;2023-05-10T11:49:47;11.38;;;6.30;;
74042;SDS011;62384;53.600;10.040;2023-05-10T11:52:13;14.00;;;6.68;;
74042;SDS011;62384;53.600;10.040;2023-05-10T11:54:46;14.15;;;7.18;;
74042;SDS011;62384;53.600;10.040;2023-05-10T11:57:17;10.05;;;6.10;;
74042;SDS011;62384;53.600;10.040;2023-05-10T11:59:43;11.65;;;7.05;;
74042;SDS011;62384;53.600;10.040;2023-05-10T12:02:09;13.75;;;7.15;;
74042;SDS011;62384;53.600;10.040;2023-05-10T12:04:37;13.32;;;8.35;;
74042;SDS011;62384;53.600;10.040;2023-05-10T12:07:06;14.63;;;8.50;;
74042;SDS011;62384;53.600;10.040;2023-05-10T12:10:24;11.93;;;7.75;;
74042;SDS011;62384;53.600;10.040;2023-05-10T12:15:23;12.57;;;7.95;;
74042;SDS011;62384;53.600;10.040;2023-05-10T12:17:50;12.90;;;8.45;;
74042;SDS011;62384;53.600;10.040;2023-05-10T12:20:17;12.23;;;7.70;;
74042;SDS011;62384;53.600;10.040;2023-05-10T12:22:55;16.40;;;9.27;;
74042;SDS011;62384;53.600;10.040;2023-05-10T12:25:23;12.93;;;7.40;;
74042;SDS011;62384;53.600;10.040;2023-05-10T12:27:56;14.82;;;8.93;;
74042;SDS011;62384;53.600;10.040;2023-05-10T12:30:27;14.13;;;8.27;;
74042;SDS011;62384;53.600;10.040;2023-05-10T12:32:53;14.10;;;7.85;;
74042;SDS011;62384;53.600;10.040;2023-05-10T12:35:24;12.43;;;8.07;;
74042;SDS011;62384;53.600;10.040;2023-05-10T12:37:53;15.10;;;7.55;;
74042;SDS011;62384;53.600;10.040;2023-05-10T12:40:18;11.93;;;7.22;;
74042;SDS011;62384;53.600;10.040;2023-05-10T12:42:43;10.90;;;7.28;;
74042;SDS011;62384;53.600;10.040;2023-05-10T12:45:09;11.20;;;6.95;;
74042;SDS011;62384;53.600;10.040;2023-05-10T12:47:35;10.13;;;6.20;;
74042;SDS011;62384;53.600;10.040;2023-05-10T12:50:02;10.88;;;6.20;;
74042;SDS011;62384;53.600;10.040;2023-05-10T12:52:28;9.70;;;6.22;;
74042;SDS011;62384;53.600;10.040;2023-05-10T12:54:53;10.85;;;5.90;;
74042;SDS011;62384;53.600;10.040;2023-05-10T12:57:22;9.80;;;5.93;;
74042;SDS011;62384;53.600;10.040;2023-05-10T12:59:47;10.45;;;5.13;;
74042;SDS011;62384;53.600;10.040;2023-05-10T13:02:13;13.32;;;6.70;;
74042;SDS011;62384;53.600;10.040;2023-05-10T13:04:39;8.57;;;5.47;;
74042;SDS011;62384;53.600;10.040;2023-05-10T13:07:05;8.43;;;5.82;;
74042;SDS011;62384;53.600;10.040;2023-05-10T13:09:31;9.90;;;5.75;;
74042;SDS011;62384;53.600;10.040;2023-05-10T13:11:56;10.27;;;5.30;;
74042;SDS011;62384;53.600;10.040;2023-05-10T13:14:22;12.52;;;5.85;;
74042;SDS011;62384;53.600;10.040;2023-05-10T13:16:47;10.52;;;6.85;;
74042;SDS011;62384;53.600;10.040;2023-05-10T13:19:13;13.40;;;6.60;;
74042;SDS011;62384;53.600;10.040;2023-05-10T13:21:39;10.98;;;7.05;;
74042;SDS011;62384;53.600;10.040;2023-05-10T13:24:05;13.52;;;7.40;;
74042;SDS011;62384;53.600;10.040;2023-05-10T13:26:31;10.30;;;6.03;;
74042;SDS011;62384;53.600;10.040;2023-05-10T13:28:56;9.00;;;5.68;;
74042;SDS011;62384;53.600;10.040;2023-05-10T13:31:22;9.25;;;5.82;;
74042;SDS011;62384;53.600;10.040;2023-05-10T13:33:47;8.30;;;5.10;;
74042;SDS011;62384;53.600;10.040;2023-05-10T13:36:12;9.82;;;5.75;;
74042;SDS011;62384;53.600;10.040;2023-05-10T13:38:38;7.53;;;5.10;;
74042;SDS011;62384;53.600;10.040;2023-05-10T13:41:03;10.45;;;4.60;;
74042;SDS011;62384;53.600;10.040;2023-05-10T13:43:29;7.55;;;4.40;;
74042;SDS011;62384;53.600;10.040;2023-05-10T13:45:55;7.28;;;4.40;;
74042;SDS011;62384;53.600;10.040;2023-05-10T13:48:21;9.95;;;4.82;;
74042;SDS011;62384;53.600;10.040;2023-05-10T13:50:46;7.47;;;4.70;;
74042;SDS011;62384;53.600;10.040;2023-05-10T13:53:12;6.85;;;4.95;;
74042;SDS011;62384;53.600;10.040;2023-05-10T13:58:59;8.40;;;4.87;;
74042;SDS011;62384;53.600;10.040;2023-05-10T14:01:25;8.10;;;4.80;;
74042;SDS011;62384;53.600;10.040;2023-05-10T14:03:50;8.13;;;5.07;;
74042;SDS011;62384;53.600;10.040;2023-05-10T14:06:16;8.50;;;5.47;;
74042;SDS011;62384;53.600;10.040;2023-05-10T14:08:42;9.70;;;5.78;;
74042;SDS011;62384;53.600;10.040;2023-05-10T14:11:07;8.13;;;5.68;;
74042;SDS011;62384;53.600;10.040;2023-05-10T14:13:34;7.18;;;5.13;;
74042;SDS011;62384;53.600;10.040;2023-05-10T14:15:59;8.57;;;5.07;;
74042;SDS011;62384;53.600;10.040;2023-05-10T14:18:25;7.90;;;5.32;;
74042;SDS011;62384;53.600;10.040;2023-05-10T14:20:51;7.15;;;4.97;;
74042;SDS011;62384;53.600;10.040;2023-05-10T14:23:16;7.22;;;5.40;;
74042;SDS011;62384;53.600;10.040;2023-05-10T14:25:55;11.25;;;5.60;;
74042;SDS011;62384;53.600;10.040;2023-05-10T14:28:20;11.25;;;5.68;;
74042;SDS011;62384;53.600;10.040;2023-05-10T14:30:47;8.32;;;5.38;;
74042;SDS011;62384;53.600;10.040;2023-05-10T14:33:12;10.88;;;5.43;;
74042;SDS011;62384;53.600;10.040;2023-05-10T14:35:38;9.05;;;6.00;;
74042;SDS011;62384;53.600;10.040;2023-05-10T14:38:03;7.65;;;5.45;;
74042;SDS011;62384;53.600;10.040;2023-05-10T14:40:29;8.77;;;5.72;;
74042;SDS011;62384;53.600;10.040;2023-05-10T14:42:55;8.70;;;5.68;;
74042;SDS011;62384;53.600;10.040;2023-05-10T14:45:21;7.85;;;4.43;;
74042;SDS011;62384;53.600;10.040;2023-05-10T14:47:47;6.85;;;4.72;;
74042;SDS011;62384;53.600;10.040;2023-05-10T14:50:13;6.78;;;4.65;;
74042;SDS011;62384;53.600;10.040;2023-05-10T14:52:38;13.48;;;5.00;;
74042;SDS011;62384;53.600;10.040;2023-05-10T14:55:03;7.47;;;4.63;;
74042;SDS011;62384;53.600;10.040;2023-05-10T14:57:29;7.40;;;5.00;;
74042;SDS011;62384;53.600;10.040;2023-05-10T14:59:55;7.50;;;4.35;;
74042;SDS011;62384;53.600;10.040;2023-05-10T15:02:21;8.00;;;4.45;;
74042;SDS011;62384;53.600;10.040;2023-05-10T15:04:46;10.40;;;5.10;;